createdAt,value
2019-04-04T00:01:47.808Z,16.23
2019-04-04T00:04:16.848Z,12.83
2019-04-04T00:06:48.842Z,15.20
2019-04-04T00:09:19.059Z,13.30
2019-04-04T00:11:49.894Z,14.10
2019-04-04T00:14:20.035Z,14.27
2019-04-04T00:16:50.166Z,14.07
2019-04-04T00:19:20.367Z,14.67
2019-04-04T00:21:50.423Z,14.97
2019-04-04T00:24:20.519Z,12.73
2019-04-04T00:26:50.594Z,12.30
2019-04-04T00:29:20.682Z,15.53
2019-04-04T00:31:50.821Z,13.03
2019-04-04T00:34:20.995Z,13.97
2019-04-04T00:36:51.104Z,13.37
2019-04-04T00:39:21.434Z,14.20
2019-04-04T00:41:51.706Z,16.10
2019-04-04T00:44:23.128Z,15.93
2019-04-04T00:46:53.873Z,16.53
2019-04-04T00:49:24.079Z,17.77
2019-04-04T00:51:54.178Z,16.57
2019-04-04T00:54:24.304Z,20.77
2019-04-04T00:56:54.433Z,16.93
2019-04-04T00:59:24.538Z,18.10
2019-04-04T01:01:55.077Z,20.50
2019-04-04T01:04:26.407Z,18.13
2019-04-04T01:06:56.502Z,19.73
2019-04-04T01:09:26.603Z,17.50
2019-04-04T01:11:56.730Z,19.63
2019-04-04T01:14:27.159Z,19.03
2019-04-04T01:16:58.650Z,17.70
2019-04-04T01:19:28.736Z,19.53
2019-04-04T01:21:58.893Z,16.53
2019-04-04T01:24:29.758Z,13.67
2019-04-04T01:27:00.060Z,15.33
2019-04-04T01:29:30.120Z,13.70
2019-04-04T01:32:00.255Z,12.13
2019-04-04T01:34:30.333Z,12.03
2019-04-04T01:37:00.448Z,10.80
2019-04-04T01:39:31.341Z,13.03
2019-04-04T01:42:02.238Z,10.37
2019-04-04T01:44:32.266Z,10.77
2019-04-04T01:47:02.374Z,9.60
2019-04-04T01:49:32.533Z,9.33
2019-04-04T01:52:02.625Z,9.60
2019-04-04T01:54:33.255Z,10.77
2019-04-04T01:57:03.409Z,10.53
2019-04-04T01:59:33.447Z,10.83
2019-04-04T02:02:03.889Z,10.93
2019-04-04T02:04:33.951Z,10.23
2019-04-04T02:07:03.855Z,8.63
2019-04-04T02:09:34.550Z,10.13
2019-04-04T02:12:07.625Z,8.77
2019-04-04T02:14:36.676Z,11.73
2019-04-04T02:17:06.759Z,9.67
2019-04-04T02:19:36.879Z,10.23
2019-04-04T02:22:06.965Z,9.43
2019-04-04T02:24:37.003Z,9.67
2019-04-04T02:27:07.641Z,10.97
2019-04-04T02:29:37.890Z,10.10
2019-04-04T02:32:13.922Z,9.90
2019-04-04T02:34:44.007Z,9.00
2019-04-04T02:37:14.102Z,10.87
2019-04-04T02:39:44.201Z,8.67
2019-04-04T02:42:14.269Z,10.17
2019-04-04T02:44:44.422Z,11.40
2019-04-04T02:47:16.805Z,9.80
2019-04-04T02:49:46.274Z,9.00
2019-04-04T02:52:16.458Z,9.93
2019-04-04T02:54:46.495Z,9.17
2019-04-04T02:57:16.594Z,8.90
2019-04-04T02:59:46.706Z,9.57
2019-04-04T03:02:16.829Z,10.73
2019-04-04T03:04:47.260Z,9.87
2019-04-04T03:07:17.488Z,10.10
2019-04-04T03:09:47.571Z,9.63
2019-04-04T03:12:17.609Z,10.13
2019-04-04T03:14:50.558Z,12.20
2019-04-04T03:17:19.493Z,12.50
2019-04-04T03:19:49.593Z,10.63
2019-04-04T03:22:19.629Z,10.90
2019-04-04T03:24:49.705Z,9.93
2019-04-04T03:27:19.739Z,10.30
2019-04-04T03:29:49.810Z,14.60
2019-04-04T03:32:19.842Z,14.07
2019-04-04T03:34:51.379Z,12.90
2019-04-04T03:37:21.797Z,12.27
2019-04-04T03:39:53.267Z,9.07
2019-04-04T03:42:23.575Z,9.17
2019-04-04T03:44:54.442Z,11.47
2019-04-04T03:47:24.633Z,9.87
2019-04-04T03:49:57.731Z,9.17
2019-04-04T03:52:26.521Z,11.17
2019-04-04T03:54:56.720Z,10.47
2019-04-04T03:57:26.716Z,9.50
2019-04-04T03:59:56.825Z,10.97
2019-04-04T04:02:26.906Z,11.07
2019-04-04T04:05:00.534Z,9.73
2019-04-04T04:07:28.722Z,10.40
2019-04-04T04:10:03.800Z,9.57
2019-04-04T04:12:33.846Z,11.20
2019-04-04T04:15:04.084Z,8.77
2019-04-04T04:17:36.213Z,8.97
2019-04-04T04:20:06.463Z,9.80
2019-04-04T04:22:36.548Z,10.30
2019-04-04T04:25:06.791Z,11.10
2019-04-04T04:27:36.861Z,9.07
2019-04-04T04:30:07.664Z,9.97
2019-04-04T04:32:38.087Z,11.60
2019-04-04T04:35:09.159Z,10.03
2019-04-04T04:37:39.287Z,11.73
2019-04-04T04:40:13.899Z,10.90
2019-04-04T04:42:41.359Z,11.77
2019-04-04T04:45:12.524Z,11.33
2019-04-04T04:47:42.753Z,9.70
2019-04-04T04:50:13.992Z,11.40
2019-04-04T04:52:46.348Z,9.17
2019-04-04T04:55:16.245Z,11.53
2019-04-04T04:57:46.377Z,10.07
2019-04-04T05:00:16.777Z,9.97
2019-04-04T05:02:46.820Z,11.67
2019-04-04T05:05:16.905Z,9.50
2019-04-04T05:07:47.057Z,10.20
2019-04-04T05:10:17.272Z,10.30
2019-04-04T05:12:47.356Z,11.40
2019-04-04T05:15:17.561Z,11.37
2019-04-04T05:17:49.643Z,10.13
2019-04-04T05:20:19.751Z,13.33
2019-04-04T05:22:49.933Z,12.03
2019-04-04T05:25:20.108Z,12.77
2019-04-04T05:27:50.263Z,13.17
2019-04-04T05:30:20.639Z,10.80
2019-04-04T05:32:53.039Z,11.77
2019-04-04T05:35:22.535Z,12.77
2019-04-04T05:37:52.679Z,11.87
2019-04-04T05:40:23.509Z,16.82
2019-04-04T05:42:54.396Z,13.07
2019-04-04T05:45:24.544Z,14.13
2019-04-04T05:47:56.367Z,16.23
2019-04-04T05:50:26.692Z,16.47
2019-04-04T05:52:56.935Z,12.57
2019-04-04T05:55:27.038Z,16.33
2019-04-04T05:57:57.147Z,14.77
2019-04-04T06:00:28.128Z,14.93
2019-04-04T06:02:58.427Z,13.07
2019-04-04T06:05:28.565Z,14.57
2019-04-04T06:07:58.699Z,12.80
2019-04-04T06:10:28.759Z,13.87
2019-04-04T06:12:58.850Z,16.13
2019-04-04T06:15:30.071Z,16.17
2019-04-04T06:18:00.773Z,17.63
2019-04-04T06:20:30.881Z,16.50
2019-04-04T06:23:01.205Z,12.73
2019-04-04T06:25:34.746Z,14.33
2019-04-04T06:28:03.405Z,13.97
2019-04-04T06:30:42.999Z,15.33
2019-04-04T06:33:05.337Z,17.67
2019-04-04T06:35:35.451Z,14.30
2019-04-04T06:38:05.532Z,15.50
2019-04-04T06:40:35.619Z,17.43
2019-04-04T06:43:10.624Z,17.97
2019-04-04T06:45:37.649Z,18.17
2019-04-04T06:48:07.741Z,20.47
2019-04-04T06:50:39.993Z,20.93
2019-04-04T06:53:09.547Z,19.70
2019-04-04T06:55:40.280Z,18.93
2019-04-04T06:58:10.513Z,18.93
2019-04-04T07:00:42.168Z,17.63
2019-04-04T07:03:12.437Z,22.93
2019-04-04T07:05:42.494Z,20.63
2019-04-04T07:08:14.798Z,19.30
2019-04-04T07:10:44.335Z,21.47
2019-04-04T07:13:21.732Z,20.07
2019-04-04T07:15:55.865Z,19.50
2019-04-04T07:18:18.020Z,24.30
2019-04-04T07:20:48.922Z,23.73
2019-04-04T07:23:19.133Z,26.40
2019-04-04T07:25:49.173Z,23.10
2019-04-04T07:28:19.730Z,25.17
2019-04-04T07:30:49.931Z,28.67
2019-04-04T07:33:21.510Z,26.37
2019-04-04T07:35:51.637Z,27.53
2019-04-04T07:38:21.771Z,26.53
2019-04-04T07:40:51.833Z,28.70
2019-04-04T07:43:21.919Z,28.80
2019-04-04T07:45:53.888Z,29.50
2019-04-04T07:48:23.779Z,26.50
2019-04-04T07:50:58.608Z,29.60
2019-04-04T07:53:29.311Z,29.47
2019-04-04T07:55:59.492Z,32.67
2019-04-04T07:58:29.628Z,32.07
2019-04-04T08:00:59.747Z,31.90
2019-04-04T08:03:30.945Z,32.50
2019-04-04T08:06:01.115Z,36.87
2019-04-04T08:08:31.222Z,34.47
2019-04-04T08:11:02.876Z,32.20
2019-04-04T08:13:33.032Z,32.67
2019-04-04T08:16:03.412Z,35.20
2019-04-04T08:18:33.458Z,35.67
2019-04-04T08:21:05.735Z,31.47
2019-04-04T08:23:35.494Z,40.33
2019-04-04T08:26:05.619Z,35.73
2019-04-04T08:28:35.685Z,35.07
2019-04-04T08:31:05.754Z,32.10
2019-04-04T08:33:35.809Z,37.47
2019-04-04T08:36:06.679Z,35.37
2019-04-04T08:38:36.981Z,38.57
2019-04-04T08:41:07.072Z,36.73
2019-04-04T08:43:37.141Z,37.17
2019-04-04T08:46:07.211Z,38.67
2019-04-04T08:48:37.316Z,39.73
2019-04-04T08:51:07.441Z,37.80
2019-04-04T08:53:40.122Z,38.53
2019-04-04T08:56:09.314Z,43.80
2019-04-04T08:58:40.350Z,45.37
2019-04-04T09:01:10.397Z,42.73
2019-04-04T09:03:40.459Z,43.80
2019-04-04T09:06:10.557Z,40.00
2019-04-04T09:08:40.638Z,39.47
2019-04-04T09:11:10.834Z,42.67
2019-04-04T09:13:40.934Z,41.10
2019-04-04T09:16:11.032Z,39.17
2019-04-04T09:18:41.109Z,37.47
2019-04-04T09:21:11.244Z,40.63
2019-04-04T09:23:41.305Z,38.63
2019-04-04T09:26:11.502Z,39.00
2019-04-04T09:28:41.570Z,37.10
2019-04-04T09:31:11.698Z,33.73
2019-04-04T09:33:41.753Z,31.83
2019-04-04T09:36:11.824Z,31.43
2019-04-04T09:38:41.945Z,29.23
2019-04-04T09:41:12.059Z,29.13
2019-04-04T09:43:42.123Z,27.53
2019-04-04T09:46:12.216Z,23.33
2019-04-04T09:48:42.298Z,20.73
2019-04-04T09:51:12.492Z,23.43
2019-04-04T09:53:52.850Z,26.67
2019-04-04T09:56:14.307Z,23.30
2019-04-04T09:58:44.352Z,22.20
2019-04-04T10:01:14.548Z,21.87
2019-04-04T10:03:44.664Z,19.73
2019-04-04T10:06:14.749Z,21.73
2019-04-04T10:08:44.867Z,21.37
2019-04-04T10:11:14.915Z,21.80
2019-04-04T10:13:45.025Z,28.10
2019-04-04T10:16:15.116Z,23.77
2019-04-04T10:18:45.202Z,23.60
2019-04-04T10:21:15.300Z,23.10
2019-04-04T10:23:45.402Z,22.97
2019-04-04T10:26:15.512Z,24.43
2019-04-04T10:28:45.583Z,26.57
2019-04-04T10:31:15.767Z,25.37
2019-04-04T10:33:45.883Z,22.03
2019-04-04T10:36:15.995Z,22.77
2019-04-04T10:38:46.162Z,22.73
2019-04-04T10:41:16.221Z,24.47
2019-04-04T10:43:46.368Z,25.50
2019-04-04T10:46:16.543Z,26.83
2019-04-04T10:48:46.684Z,22.93
2019-04-04T10:51:16.770Z,25.80
2019-04-04T10:53:46.911Z,26.20
2019-04-04T10:56:17.022Z,25.17
2019-04-04T10:58:47.104Z,21.50
2019-04-04T11:01:17.167Z,25.13
2019-04-04T11:03:47.332Z,24.07
2019-04-04T11:06:17.385Z,28.83
2019-04-04T11:08:47.490Z,27.03
2019-04-04T11:11:17.591Z,32.43
2019-04-04T11:13:47.685Z,29.90
2019-04-04T11:16:29.570Z,28.00
2019-04-04T11:18:49.607Z,30.60
2019-04-04T11:21:19.663Z,34.57
2019-04-04T11:23:49.777Z,30.70
2019-04-04T11:26:19.956Z,29.10
2019-04-04T11:28:50.151Z,29.73
2019-04-04T11:31:20.206Z,31.80
2019-04-04T11:33:50.301Z,33.60
2019-04-04T11:36:20.388Z,34.50
2019-04-04T11:38:50.545Z,34.47
2019-04-04T11:41:20.628Z,34.57
2019-04-04T11:43:50.723Z,34.53
2019-04-04T11:46:20.797Z,32.13
2019-04-04T11:48:50.923Z,37.50
2019-04-04T11:51:21.006Z,40.00
2019-04-04T11:53:51.099Z,34.77
2019-04-04T11:56:21.205Z,32.97
2019-04-04T11:58:51.251Z,31.17
2019-04-04T12:01:21.751Z,32.57
2019-04-04T12:03:51.843Z,32.67
2019-04-04T12:06:21.971Z,34.50
2019-04-04T12:08:52.025Z,30.63
2019-04-04T12:11:22.816Z,35.63
2019-04-04T12:13:53.099Z,30.10
2019-04-04T12:16:23.221Z,25.70
2019-04-04T12:18:53.309Z,30.53
2019-04-04T12:21:23.428Z,30.93
2019-04-04T12:23:53.497Z,34.60
2019-04-04T12:26:23.613Z,33.90
2019-04-04T12:28:53.707Z,31.97
2019-04-04T12:31:23.805Z,28.20
2019-04-04T12:33:53.932Z,27.17
2019-04-04T12:36:25.140Z,29.90
2019-04-04T12:38:55.377Z,24.53
2019-04-04T12:41:28.130Z,27.47
2019-04-04T12:43:57.246Z,22.27
2019-04-04T12:46:27.341Z,25.00
2019-04-04T12:48:57.451Z,27.50
2019-04-04T12:51:27.603Z,25.03
2019-04-04T12:53:57.685Z,26.50
2019-04-04T12:56:27.806Z,28.17
2019-04-04T12:58:57.875Z,26.07
2019-04-04T13:01:27.958Z,25.27
2019-04-04T13:03:58.063Z,27.27
2019-04-04T13:06:28.205Z,28.10
2019-04-04T13:08:58.290Z,28.87
2019-04-04T13:11:28.533Z,30.43
2019-04-04T13:13:58.638Z,29.93
2019-04-04T13:16:28.751Z,29.03
2019-04-04T13:18:58.849Z,28.27
2019-04-04T13:21:28.949Z,26.67
2019-04-04T13:23:59.043Z,27.17
2019-04-04T13:26:29.156Z,29.90
2019-04-04T13:28:59.263Z,28.07
2019-04-04T13:31:29.179Z,28.27
2019-04-04T13:33:59.254Z,28.20
2019-04-04T13:36:29.390Z,32.73
2019-04-04T13:38:59.597Z,27.03
2019-04-04T13:41:29.888Z,28.57
2019-04-04T13:43:59.964Z,29.43
2019-04-04T13:46:30.056Z,28.53
2019-04-04T13:49:00.146Z,27.60
2019-04-04T13:51:30.281Z,25.30
2019-04-04T13:54:00.370Z,34.70
2019-04-04T13:56:30.467Z,29.63
2019-04-04T13:59:02.032Z,30.73
2019-04-04T14:01:32.815Z,34.37
2019-04-04T14:04:03.029Z,30.47
2019-04-04T14:06:33.098Z,27.67
2019-04-04T14:09:03.322Z,28.27
2019-04-04T14:11:33.426Z,31.97
2019-04-04T14:14:03.525Z,29.60
2019-04-04T14:16:33.688Z,31.93
2019-04-04T14:19:03.830Z,29.87
2019-04-04T14:21:33.953Z,28.83
2019-04-04T14:24:13.081Z,28.90
2019-04-04T14:26:35.935Z,30.03
2019-04-04T14:29:06.132Z,27.23
2019-04-04T14:31:36.218Z,29.70
2019-04-04T14:34:06.516Z,26.97
2019-04-04T14:36:36.687Z,25.80
2019-04-04T14:39:08.572Z,26.90
2019-04-04T14:41:38.658Z,31.80
2019-04-04T14:44:08.762Z,25.90
2019-04-04T14:46:39.340Z,27.30
2019-04-04T14:49:10.052Z,32.07
2019-04-04T14:51:40.139Z,27.87
2019-04-04T14:54:10.270Z,29.00
2019-04-04T14:56:40.373Z,30.20
2019-04-04T14:59:10.468Z,27.83
2019-04-04T15:01:40.730Z,33.77
2019-04-04T15:04:10.895Z,26.57
2019-04-04T15:06:40.998Z,28.03
2019-04-04T15:09:11.741Z,29.93
2019-04-04T15:11:41.843Z,32.67
2019-04-04T15:14:12.072Z,32.10
2019-04-04T15:16:42.115Z,28.37
2019-04-04T15:19:12.333Z,35.37
2019-04-04T15:21:42.403Z,31.40
2019-04-04T15:24:12.502Z,30.40
2019-04-04T15:26:42.583Z,28.27
2019-04-04T15:29:12.689Z,30.87
2019-04-04T15:31:42.815Z,30.23
2019-04-04T15:34:12.939Z,28.93
2019-04-04T15:36:43.041Z,28.37
2019-04-04T15:39:15.875Z,32.57
2019-04-04T15:41:45.098Z,31.00
2019-04-04T15:44:15.234Z,32.77
2019-04-04T15:46:45.344Z,31.23
2019-04-04T15:49:15.457Z,35.03
2019-04-04T15:51:45.584Z,33.73
2019-04-04T15:54:15.664Z,30.03
2019-04-04T15:56:45.791Z,29.53
2019-04-04T15:59:15.846Z,29.63
2019-04-04T16:01:45.958Z,28.60
2019-04-04T16:04:16.038Z,30.43
2019-04-04T16:06:46.175Z,27.93
2019-04-04T16:09:17.930Z,31.87
2019-04-04T16:11:49.761Z,29.87
2019-04-04T16:14:19.796Z,30.97
2019-04-04T16:16:49.971Z,29.73
2019-04-04T16:19:20.067Z,26.63
2019-04-04T16:21:50.185Z,29.00
2019-04-04T16:24:20.364Z,27.90
2019-04-04T16:26:50.473Z,30.77
2019-04-04T16:29:20.653Z,27.50
2019-04-04T16:31:50.803Z,33.05
2019-04-04T16:34:20.862Z,30.67
2019-04-04T16:36:51.058Z,33.00
2019-04-04T16:39:21.208Z,30.87
2019-04-04T16:42:01.583Z,27.40
2019-04-04T16:44:23.195Z,30.07
2019-04-04T16:46:53.332Z,28.23
2019-04-04T16:49:23.442Z,27.53
2019-04-04T16:51:53.553Z,31.80
2019-04-04T16:54:23.647Z,28.23
2019-04-04T16:56:53.765Z,31.43
2019-04-04T16:59:23.905Z,27.10
2019-04-04T17:01:54.077Z,29.60
2019-04-04T17:04:24.206Z,25.23
2019-04-04T17:06:54.879Z,29.33
2019-04-04T17:09:25.089Z,28.57
2019-04-04T17:11:55.273Z,29.27
2019-04-04T17:14:25.385Z,30.37
2019-04-04T17:16:55.523Z,32.83
2019-04-04T17:19:25.717Z,27.23
2019-04-04T17:21:55.816Z,29.63
2019-04-04T17:24:25.926Z,23.90
2019-04-04T17:26:57.486Z,26.53
2019-04-04T17:29:27.717Z,29.57
2019-04-04T17:31:58.182Z,28.63
2019-04-04T17:34:28.482Z,28.47
2019-04-04T17:36:58.869Z,32.07
2019-04-04T17:39:28.982Z,37.07
2019-04-04T17:41:59.687Z,30.93
2019-04-04T17:44:29.755Z,34.20
2019-04-04T17:46:59.919Z,35.03
2019-04-04T17:49:30.508Z,31.10
2019-04-04T17:52:02.906Z,34.63
2019-04-04T17:54:33.517Z,36.03
2019-04-04T17:57:04.191Z,38.67
2019-04-04T17:59:34.345Z,35.10
2019-04-04T18:02:04.412Z,29.47
2019-04-04T18:04:34.784Z,30.70
2019-04-04T18:07:04.935Z,33.73
2019-04-04T18:09:35.215Z,34.37
2019-04-04T18:12:05.336Z,31.47
2019-04-04T18:14:35.445Z,33.20
2019-04-04T18:17:05.676Z,38.13
2019-04-04T18:19:35.813Z,34.63
2019-04-04T18:22:05.910Z,34.03
2019-04-04T18:24:36.070Z,33.43
2019-04-04T18:27:06.180Z,32.77
2019-04-04T18:29:36.336Z,29.97
2019-04-04T18:32:06.459Z,33.60
2019-04-04T18:34:36.961Z,27.37
2019-04-04T18:37:07.112Z,27.07
2019-04-04T18:39:37.260Z,30.63
2019-04-04T18:42:07.343Z,25.27
2019-04-04T18:44:37.522Z,24.20
2019-04-04T18:47:07.620Z,24.50
2019-04-04T18:49:37.778Z,22.67
2019-04-04T18:52:07.881Z,21.47
2019-04-04T18:54:38.025Z,20.13
2019-04-04T18:57:08.117Z,20.23
2019-04-04T18:59:38.266Z,17.77
2019-04-04T19:02:08.417Z,18.13
2019-04-04T19:04:38.524Z,18.43
2019-04-04T19:07:08.620Z,19.17
2019-04-04T19:09:38.766Z,19.73
2019-04-04T19:12:08.848Z,17.67
2019-04-04T19:14:38.970Z,19.10
2019-04-04T19:17:09.043Z,20.23
2019-04-04T19:19:39.193Z,18.30
2019-04-04T19:22:09.340Z,16.50
2019-04-04T19:24:39.533Z,20.20
2019-04-04T19:27:09.660Z,18.50
2019-04-04T19:29:39.810Z,17.23
2019-04-04T19:32:09.887Z,16.33
2019-04-04T19:34:40.090Z,16.97
2019-04-04T19:37:09.974Z,17.37
2019-04-04T19:39:40.168Z,17.33
2019-04-04T19:42:10.414Z,20.07
2019-04-04T19:44:52.433Z,17.17
2019-04-04T19:47:12.335Z,15.23
2019-04-04T19:49:42.432Z,17.37
2019-04-04T19:52:12.504Z,17.97
2019-04-04T19:54:42.642Z,16.67
2019-04-04T19:57:12.699Z,18.17
2019-04-04T19:59:42.816Z,18.87
2019-04-04T20:02:12.884Z,16.67
2019-04-04T20:04:43.035Z,15.80
2019-04-04T20:07:13.223Z,17.27
2019-04-04T20:09:43.364Z,17.60
2019-04-04T20:12:15.719Z,19.03
2019-04-04T20:14:45.837Z,16.07
2019-04-04T20:17:15.914Z,16.10
2019-04-04T20:19:46.059Z,18.03
2019-04-04T20:22:16.115Z,19.10
2019-04-04T20:24:46.240Z,21.20
2019-04-04T20:27:16.324Z,19.50
2019-04-04T20:29:46.402Z,17.17
2019-04-04T20:32:16.452Z,19.00
2019-04-04T20:34:46.601Z,18.57
2019-04-04T20:37:16.661Z,15.70
2019-04-04T20:39:46.816Z,18.77
2019-04-04T20:42:16.940Z,20.07
2019-04-04T20:44:47.072Z,19.10
2019-04-04T20:47:17.160Z,18.63
2019-04-04T20:49:47.262Z,17.43
2019-04-04T20:52:17.346Z,18.27
2019-04-04T20:54:47.512Z,17.50
2019-04-04T20:57:17.719Z,19.80
2019-04-04T20:59:47.774Z,18.77
2019-04-04T21:02:17.874Z,17.53
2019-04-04T21:04:48.027Z,22.37
2019-04-04T21:07:18.173Z,21.13
2019-04-04T21:09:48.403Z,21.43
2019-04-04T21:12:18.538Z,21.20
2019-04-04T21:14:48.777Z,18.93
2019-04-04T21:17:18.909Z,21.77
2019-04-04T21:19:49.120Z,23.37
2019-04-04T21:22:27.525Z,20.93
2019-04-04T21:24:51.128Z,21.70
2019-04-04T21:27:23.001Z,20.70
2019-04-04T21:29:53.033Z,18.03
2019-04-04T21:32:23.126Z,20.50
2019-04-04T21:34:53.325Z,22.73
2019-04-04T21:37:23.403Z,22.20
2019-04-04T21:39:53.684Z,21.40
2019-04-04T21:42:23.834Z,24.53
2019-04-04T21:44:53.954Z,24.30
2019-04-04T21:47:24.056Z,27.83
2019-04-04T21:49:54.190Z,23.57
2019-04-04T21:52:24.322Z,23.80
2019-04-04T21:54:54.427Z,25.60
2019-04-04T21:57:24.611Z,27.87
2019-04-04T21:59:54.715Z,24.37
2019-04-04T22:02:24.919Z,25.80
2019-04-04T22:04:55.050Z,25.53
2019-04-04T22:07:25.305Z,27.40
2019-04-04T22:09:55.494Z,23.97
2019-04-04T22:12:25.700Z,25.70
2019-04-04T22:14:55.825Z,27.67
2019-04-04T22:17:25.906Z,25.60
2019-04-04T22:19:56.050Z,29.07
2019-04-04T22:22:26.274Z,35.27
2019-04-04T22:24:56.425Z,38.23
2019-04-04T22:27:26.683Z,44.27
2019-04-04T22:29:56.772Z,51.43
2019-04-04T22:32:26.952Z,45.57
2019-04-04T22:34:57.053Z,43.73
2019-04-04T22:37:27.232Z,53.10
2019-04-04T22:39:57.435Z,49.00
2019-04-04T22:42:27.601Z,43.00
2019-04-04T22:44:57.742Z,41.07
2019-04-04T22:47:27.865Z,40.33
2019-04-04T22:49:58.654Z,39.73
2019-04-04T22:52:28.756Z,36.40
2019-04-04T22:54:58.929Z,34.37
2019-04-04T22:57:29.055Z,38.13
2019-04-04T22:59:59.178Z,41.07
2019-04-04T23:02:29.292Z,38.07
2019-04-04T23:04:59.550Z,36.03
2019-04-04T23:07:29.644Z,41.87
2019-04-04T23:09:59.804Z,32.63
2019-04-04T23:12:29.965Z,33.40
2019-04-04T23:15:00.202Z,42.13
2019-04-04T23:17:30.394Z,41.03
2019-04-04T23:20:00.516Z,35.53
2019-04-04T23:22:30.585Z,35.17
2019-04-04T23:25:00.738Z,40.37
2019-04-04T23:27:30.830Z,37.43
2019-04-04T23:30:02.307Z,35.27
2019-04-04T23:32:32.412Z,42.03
2019-04-04T23:35:02.530Z,46.63
2019-04-04T23:37:32.601Z,41.37
2019-04-04T23:40:02.869Z,40.90
2019-04-04T23:42:32.944Z,42.03
2019-04-04T23:45:03.078Z,42.37
2019-04-04T23:47:42.572Z,38.07
2019-04-04T23:50:05.080Z,42.07
2019-04-04T23:52:35.249Z,43.97
2019-04-04T23:55:05.856Z,39.30
2019-04-04T23:57:35.979Z,42.13
